Time;durP1;ratioP1;P1;durP2;ratioP2;P2;SDS_P1;SDS_P2;PMS_P1;PMS_P2;Temp;Humidity;BMP_temperature;BMP_pressure;BME280_temperature;BME280_humidity;BME280_pressure;Samples;Min_cycle;Max_cycle;Signal;HPM_P1;HPM_P2
2021/06/13 00:00:17;;;;;;;4.50;2.50;;;20.90;49.20;;;;;;4974704;28;20480;-92
2021/06/13 00:02:44;;;;;;;3.28;1.92;;;20.90;49.30;;;;;;4959681;28;20081;-91
2021/06/13 00:05:12;;;;;;;4.70;2.50;;;20.80;49.30;;;;;;4957676;28;20046;-91
2021/06/13 00:07:38;;;;;;;4.32;2.30;;;20.80;49.40;;;;;;4974702;28;20030;-91
2021/06/13 00:10:06;;;;;;;4.18;2.30;;;20.80;49.40;;;;;;4957918;28;20041;-91
2021/06/13 00:12:32;;;;;;;3.88;2.10;;;20.70;49.50;;;;;;4959034;28;20111;-91
2021/06/13 00:14:58;;;;;;;4.07;2.22;;;20.70;49.50;;;;;;4959815;28;20123;-90
2021/06/13 00:17:24;;;;;;;4.32;2.25;;;20.60;49.50;;;;;;4957808;28;20130;-92
2021/06/13 00:19:50;;;;;;;3.85;2.40;;;20.60;49.60;;;;;;4985370;28;21660;-92
2021/06/13 00:22:16;;;;;;;3.97;2.38;;;20.50;49.60;;;;;;4967596;28;20378;-92
2021/06/13 00:24:41;;;;;;;3.35;2.10;;;20.60;49.70;;;;;;4957808;28;20027;-92
2021/06/13 00:27:07;;;;;;;3.97;2.10;;;20.50;49.70;;;;;;4955317;28;20027;-90
2021/06/13 00:29:33;;;;;;;4.05;2.30;;;20.50;49.80;;;;;;4957170;28;20391;-91
2021/06/13 00:31:59;;;;;;;3.85;2.30;;;20.40;49.80;;;;;;4963270;28;20058;-90
2021/06/13 00:34:25;;;;;;;5.03;2.38;;;20.40;49.90;;;;;;4970265;28;20026;-91
2021/06/13 00:36:52;;;;;;;3.78;2.25;;;20.40;49.90;;;;;;4984539;28;20035;-92
2021/06/13 00:39:18;;;;;;;3.50;2.03;;;20.30;50.00;;;;;;4994303;28;20026;-92
2021/06/13 00:41:44;;;;;;;4.53;2.03;;;20.30;50.00;;;;;;4981134;28;20039;-92
2021/06/13 00:44:11;;;;;;;5.82;2.67;;;20.30;50.00;;;;;;4985783;28;20027;-91
2021/06/13 00:46:40;;;;;;;4.10;2.30;;;20.20;50.10;;;;;;4990358;28;20133;-91
2021/06/13 00:49:07;;;;;;;3.97;2.28;;;20.20;50.10;;;;;;4976952;28;20024;-90
2021/06/13 00:51:33;;;;;;;3.47;2.20;;;20.20;50.30;;;;;;4973751;28;20034;-92
2021/06/13 00:53:58;;;;;;;3.75;2.35;;;20.20;50.30;;;;;;4973641;28;20162;-90
2021/06/13 00:56:27;;;;;;;3.25;2.30;;;20.10;50.30;;;;;;4989355;28;20050;-91
2021/06/13 00:58:53;;;;;;;4.50;2.63;;;20.10;50.30;;;;;;4974349;28;20027;-91
2021/06/13 01:01:21;;;;;;;3.35;2.17;;;20.00;50.40;;;;;;4956632;28;20034;-91
2021/06/13 01:03:48;;;;;;;3.67;2.33;;;20.00;50.40;;;;;;4979269;28;20039;-91
2021/06/13 01:06:20;;;;;;;5.68;2.50;;;20.00;50.50;;;;;;4936239;28;20044;-92
2021/06/13 01:08:51;;;;;;;3.70;2.50;;;19.90;50.50;;;;;;4965351;28;20504;-90
2021/06/13 01:11:29;;;;;;;4.93;2.33;;;19.90;50.60;;;;;;4991451;28;20255;-91
2021/06/13 01:14:12;;;;;;;5.33;2.90;;;19.90;50.60;;;;;;4980758;28;20042;-91
2021/06/13 01:17:00;;;;;;;5.18;2.40;;;19.80;50.70;;;;;;4971757;28;20111;-91
2021/06/13 01:19:54;;;;;;;4.28;2.38;;;19.80;50.80;;;;;;4969891;28;20050;-91
2021/06/13 01:22:46;;;;;;;4.10;2.30;;;19.80;50.90;;;;;;4985577;28;20058;-91
2021/06/13 01:25:34;;;;;;;3.85;2.13;;;19.70;50.90;;;;;;4972963;28;20026;-91
2021/06/13 01:28:28;;;;;;;4.28;2.30;;;19.70;51.00;;;;;;4973306;28;20033;-90
2021/06/13 01:30:58;;;;;;;4.10;2.42;;;19.60;51.00;;;;;;4967673;28;20441;-90
2021/06/13 01:33:24;;;;;;;4.93;2.45;;;19.50;50.90;;;;;;4965798;28;20031;-91
2021/06/13 01:35:55;;;;;;;4.13;2.20;;;19.50;51.00;;;;;;4957332;28;20070;-91
2021/06/13 01:38:22;;;;;;;4.25;2.42;;;19.50;51.10;;;;;;4989508;28;20034;-91
2021/06/13 01:40:49;;;;;;;3.72;2.30;;;19.50;51.20;;;;;;4971742;28;20037;-91
2021/06/13 01:43:16;;;;;;;3.45;2.38;;;19.50;51.20;;;;;;4992944;28;20038;-91
2021/06/13 01:45:45;;;;;;;2.67;2.00;;;19.40;51.20;;;;;;4993913;28;20046;-91
2021/06/13 01:48:24;;;;;;;4.43;2.50;;;19.40;51.30;;;;;;5112988;27;20152;-91
2021/06/13 01:50:54;;;;;;;3.72;2.17;;;19.40;51.30;;;;;;5069432;28;20511;-92
2021/06/13 01:53:22;;;;;;;3.90;2.38;;;19.30;51.30;;;;;;5076358;28;20460;-91
2021/06/13 01:55:49;;;;;;;3.72;2.45;;;19.30;51.40;;;;;;5093246;28;20085;-91
2021/06/13 01:58:20;;;;;;;4.65;2.25;;;19.30;51.40;;;;;;5093150;28;20032;-91
2021/06/13 02:00:59;;;;;;;3.63;2.20;;;19.30;51.50;;;;;;5076552;28;20028;-91
2021/06/13 02:03:26;;;;;;;4.30;2.30;;;19.20;51.50;;;;;;5092613;28;20036;-90
2021/06/13 02:06:12;;;;;;;4.28;2.58;;;19.20;51.50;;;;;;5079913;28;20024;-91
2021/06/13 02:08:40;;;;;;;4.38;2.55;;;19.20;51.60;;;;;;5072188;28;20055;-91
2021/06/13 02:11:14;;;;;;;4.22;2.53;;;19.10;51.60;;;;;;5068790;28;20023;-91
2021/06/13 02:13:45;;;;;;;4.65;2.45;;;19.10;51.70;;;;;;5088891;28;20028;-91
2021/06/13 02:16:19;;;;;;;4.60;2.70;;;19.10;51.70;;;;;;5088801;28;20034;-89
2021/06/13 02:18:48;;;;;;;5.20;3.00;;;19.10;51.80;;;;;;5072902;28;20023;-91
2021/06/13 02:21:16;;;;;;;4.55;2.45;;;19.00;51.80;;;;;;5091577;28;20046;-91
2021/06/13 02:23:43;;;;;;;4.35;2.40;;;19.00;51.80;;;;;;5072041;28;20020;-91
2021/06/13 02:26:10;;;;;;;4.85;2.67;;;19.00;51.90;;;;;;5074583;28;20055;-91
2021/06/13 02:28:41;;;;;;;4.10;2.50;;;18.90;51.90;;;;;;5075594;28;20040;-91
2021/06/13 02:31:10;;;;;;;4.32;2.65;;;18.90;52.00;;;;;;5073820;28;20077;-90
2021/06/13 02:33:43;;;;;;;5.28;2.78;;;18.90;52.00;;;;;;5091379;28;20119;-91
2021/06/13 02:36:12;;;;;;;4.43;2.50;;;18.80;52.00;;;;;;5070523;28;20122;-91
2021/06/13 02:38:52;;;;;;;4.32;2.58;;;18.80;52.00;;;;;;5076840;28;20289;-91
2021/06/13 02:41:18;;;;;;;4.20;2.30;;;18.80;52.10;;;;;;5074833;28;20019;-90
2021/06/13 02:43:44;;;;;;;4.68;2.58;;;18.80;52.20;;;;;;5058589;28;20069;-90
2021/06/13 02:46:11;;;;;;;3.47;2.20;;;18.70;52.20;;;;;;5074824;28;20062;-91
2021/06/13 02:48:37;;;;;;;4.60;2.45;;;18.70;52.20;;;;;;5066474;28;20068;-91
2021/06/13 02:51:03;;;;;;;4.22;2.70;;;18.60;52.20;;;;;;5079325;28;20024;-90
2021/06/13 02:53:44;;;;;;;4.43;2.55;;;18.60;52.30;;;;;;5056947;28;20376;-91
2021/06/13 02:56:16;;;;;;;4.15;2.70;;;18.60;52.40;;;;;;5074616;28;20102;-91
2021/06/13 02:59:21;;;;;;;3.97;2.53;;;18.60;52.40;;;;;;5067532;28;20035;-90
2021/06/13 03:01:50;;;;;;;4.23;2.67;;;18.50;52.50;;;;;;5048073;28;20024;-90
2021/06/13 03:04:18;;;;;;;3.92;2.63;;;18.50;52.40;;;;;;5064227;28;20016;-91
2021/06/13 03:06:52;;;;;;;4.65;2.58;;;18.50;52.40;;;;;;5077932;28;20035;-90
2021/06/13 03:09:19;;;;;;;5.07;2.95;;;18.50;52.60;;;;;;5061072;28;20036;-92
2021/06/13 03:11:46;;;;;;;6.07;2.83;;;18.40;52.50;;;;;;5077870;28;20107;-91
2021/06/13 03:14:15;;;;;;;3.55;2.50;;;18.40;52.60;;;;;;5060462;28;20039;-91
2021/06/13 03:16:45;;;;;;;5.38;3.00;;;18.40;52.60;;;;;;5061664;28;20062;-91
2021/06/13 03:19:12;;;;;;;3.78;2.50;;;18.30;52.60;;;;;;5060349;28;20024;-91
2021/06/13 03:21:39;;;;;;;5.05;3.20;;;18.30;52.70;;;;;;5075736;28;20046;-90
2021/06/13 03:24:07;;;;;;;4.18;2.42;;;18.30;52.70;;;;;;5071886;28;20113;-90
2021/06/13 03:26:36;;;;;;;4.63;2.80;;;18.30;52.80;;;;;;5046836;28;20036;-90
2021/06/13 03:29:04;;;;;;;4.45;2.67;;;18.30;52.80;;;;;;5054512;28;20455;-90
2021/06/13 03:31:32;;;;;;;4.15;2.63;;;18.20;52.80;;;;;;5067524;28;20084;-92
2021/06/13 03:33:58;;;;;;;4.00;2.45;;;18.20;52.90;;;;;;5058596;28;20038;-91
2021/06/13 03:36:28;;;;;;;3.83;2.65;;;18.20;52.90;;;;;;5060578;28;20036;-89
2021/06/13 03:38:55;;;;;;;4.88;2.75;;;18.10;52.90;;;;;;5077243;28;20031;-92
2021/06/13 03:41:24;;;;;;;5.10;3.13;;;18.20;53.00;;;;;;5036266;28;20033;-91
2021/06/13 03:43:52;;;;;;;5.07;3.20;;;18.10;53.10;;;;;;5027916;28;20056;-90
2021/06/13 03:46:19;;;;;;;4.32;2.58;;;18.10;53.10;;;;;;5076904;28;20028;-91
2021/06/13 03:48:49;;;;;;;4.43;2.65;;;18.00;53.10;;;;;;5059838;28;20027;-91
2021/06/13 03:51:16;;;;;;;4.63;2.67;;;18.00;53.10;;;;;;5059608;28;20074;-90
2021/06/13 03:53:48;;;;;;;5.30;3.03;;;18.00;53.10;;;;;;5076183;28;20024;-91
2021/06/13 03:56:19;;;;;;;4.55;2.70;;;18.00;53.20;;;;;;5048752;28;20127;-90
2021/06/13 03:58:47;;;;;;;4.03;2.45;;;18.00;53.30;;;;;;5075665;28;20016;-90
2021/06/13 04:01:17;;;;;;;4.68;2.30;;;18.00;53.40;;;;;;5056659;28;20077;-89
2021/06/13 04:03:47;;;;;;;4.95;2.97;;;17.90;53.30;;;;;;5076148;28;20024;-89
2021/06/13 04:06:14;;;;;;;5.00;2.60;;;17.90;53.40;;;;;;5067669;28;20039;-88
2021/06/13 04:08:40;;;;;;;4.50;2.80;;;17.90;53.40;;;;;;5059796;28;20388;-90
2021/06/13 04:11:09;;;;;;;5.13;3.10;;;17.90;53.50;;;;;;5055344;28;20040;-90
2021/06/13 04:13:36;;;;;;;5.53;2.85;;;17.90;53.50;;;;;;5068329;28;20017;-91
2021/06/13 04:16:06;;;;;;;4.15;2.67;;;17.90;53.50;;;;;;5056512;28;20033;-90
2021/06/13 04:18:36;;;;;;;4.30;2.70;;;17.80;53.60;;;;;;5034207;28;20335;-91
2021/06/13 04:21:08;;;;;;;4.43;2.58;;;17.80;53.60;;;;;;5076333;28;20024;-90
2021/06/13 04:23:34;;;;;;;3.33;2.20;;;17.80;53.60;;;;;;5074128;28;20039;-91
2021/06/13 04:26:00;;;;;;;4.57;2.70;;;17.80;53.70;;;;;;5093981;28;20020;-90
2021/06/13 04:28:29;;;;;;;4.25;2.67;;;17.80;53.70;;;;;;5059286;28;20050;-90
2021/06/13 04:31:02;;;;;;;4.22;2.55;;;17.80;53.80;;;;;;5059577;28;20077;-90
2021/06/13 04:33:32;;;;;;;4.28;2.58;;;17.80;53.90;;;;;;5076422;28;20103;-90
2021/06/13 04:35:58;;;;;;;5.10;2.75;;;17.70;53.90;;;;;;5058535;28;20060;-89
2021/06/13 04:38:24;;;;;;;4.45;2.70;;;17.70;53.80;;;;;;5059238;28;20063;-90
2021/06/13 04:40:50;;;;;;;5.22;2.70;;;17.70;53.90;;;;;;5056335;28;20037;-90
2021/06/13 04:43:17;;;;;;;4.88;2.50;;;17.70;53.90;;;;;;5074233;28;20028;-89
2021/06/13 04:45:42;;;;;;;4.28;2.47;;;17.70;53.90;;;;;;5050492;28;20021;-89
2021/06/13 04:48:08;;;;;;;4.90;2.67;;;17.70;54.00;;;;;;5058374;28;20050;-91
2021/06/13 04:50:35;;;;;;;4.45;2.40;;;17.70;54.00;;;;;;5067377;28;20477;-90
2021/06/13 04:53:02;;;;;;;3.53;2.55;;;17.70;54.10;;;;;;5048483;28;20074;-89
2021/06/13 04:55:32;;;;;;;4.43;2.60;;;17.70;54.10;;;;;;5075892;28;20020;-89
2021/06/13 04:58:14;;;;;;;5.25;2.65;;;17.60;54.10;;;;;;5059122;28;20036;-90
2021/06/13 05:00:40;;;;;;;4.68;2.70;;;17.60;54.20;;;;;;5063521;28;20051;-89
2021/06/13 05:03:06;;;;;;;4.47;2.45;;;17.60;54.10;;;;;;5052982;28;20081;-90
2021/06/13 05:05:32;;;;;;;5.47;2.65;;;17.60;54.20;;;;;;5042001;28;20032;-90
2021/06/13 05:07:58;;;;;;;4.53;2.50;;;17.60;54.20;;;;;;5042021;28;20173;-90
2021/06/13 05:10:24;;;;;;;5.25;2.95;;;17.60;54.20;;;;;;5025734;28;20035;-88
2021/06/13 05:12:52;;;;;;;4.15;2.30;;;17.60;54.30;;;;;;5075069;28;20055;-89
2021/06/13 05:15:21;;;;;;;4.60;2.47;;;17.60;54.40;;;;;;5093278;28;20031;-89
2021/06/13 05:17:47;;;;;;;4.18;2.50;;;17.60;54.40;;;;;;5074940;28;20074;-89
2021/06/13 05:20:13;;;;;;;4.53;2.90;;;17.60;54.40;;;;;;5063032;28;20019;-89
2021/06/13 05:23:00;;;;;;;4.57;3.00;;;17.60;54.40;;;;;;5055785;28;20036;-89
2021/06/13 05:25:34;;;;;;;4.82;2.60;;;17.60;54.50;;;;;;5056252;28;20067;-88
2021/06/13 05:28:02;;;;;;;3.72;2.33;;;17.60;54.40;;;;;;5075181;28;20036;-89
2021/06/13 05:30:29;;;;;;;3.15;2.30;;;17.60;55.00;;;;;;5057809;28;20058;-88
2021/06/13 05:32:56;;;;;;;3.85;2.10;;;17.50;54.40;;;;;;5042560;28;20048;-87
2021/06/13 05:35:23;;;;;;;3.97;2.15;;;17.60;54.50;;;;;;5058238;28;20384;-88
2021/06/13 05:37:49;;;;;;;4.18;2.35;;;17.60;54.50;;;;;;5058553;28;20103;-88
2021/06/13 05:40:17;;;;;;;4.28;2.78;;;17.50;54.40;;;;;;5067820;28;20024;-86
2021/06/13 05:42:42;;;;;;;3.63;2.38;;;17.50;54.40;;;;;;5068272;28;20032;-88
2021/06/13 05:45:10;;;;;;;4.22;2.70;;;17.60;54.50;;;;;;5058477;28;20035;-88
2021/06/13 05:47:37;;;;;;;5.10;2.67;;;17.60;54.50;;;;;;5054471;28;20040;-87
2021/06/13 05:50:09;;;;;;;4.65;2.50;;;17.60;54.50;;;;;;5051856;28;20048;-86
2021/06/13 05:52:35;;;;;;;4.25;2.70;;;17.60;54.60;;;;;;5058359;28;20510;-87
2021/06/13 05:55:00;;;;;;;3.97;2.25;;;17.60;54.50;;;;;;5060927;28;20058;-87
2021/06/13 05:57:31;;;;;;;3.95;2.30;;;17.60;54.50;;;;;;5048919;28;20123;-88
2021/06/13 05:59:59;;;;;;;4.03;2.30;;;17.60;54.60;;;;;;5088494;28;20040;-87
2021/06/13 06:02:25;;;;;;;3.83;2.22;;;17.60;54.60;;;;;;5051646;28;20021;-87
2021/06/13 06:04:51;;;;;;;3.33;2.20;;;17.60;54.60;;;;;;5073066;28;20028;-87
2021/06/13 06:07:17;;;;;;;5.13;2.38;;;17.60;54.60;;;;;;5041272;28;20035;-87
2021/06/13 06:09:43;;;;;;;4.22;2.25;;;17.60;54.60;;;;;;5057996;28;20032;-88
2021/06/13 06:12:09;;;;;;;3.55;2.20;;;17.60;54.60;;;;;;5057836;28;20024;-85
2021/06/13 06:14:37;;;;;;;3.58;2.08;;;17.60;54.60;;;;;;5054950;28;20020;-86
2021/06/13 06:17:03;;;;;;;3.00;1.98;;;17.60;54.70;;;;;;5058573;28;20437;-88
2021/06/13 06:19:29;;;;;;;3.30;2.15;;;17.60;54.60;;;;;;5028871;28;20021;-86
2021/06/13 06:21:56;;;;;;;3.85;2.38;;;17.60;54.60;;;;;;5049773;28;20066;-87
2021/06/13 06:24:22;;;;;;;3.65;2.17;;;17.70;55.30;;;;;;5051743;28;20032;-93
2021/06/13 06:26:48;;;;;;;3.58;2.03;;;17.60;54.60;;;;;;5041552;28;20557;-89
2021/06/13 06:29:14;;;;;;;3.22;2.00;;;17.70;54.60;;;;;;5057366;28;20052;-88
2021/06/13 06:31:39;;;;;;;3.85;2.15;;;17.70;54.60;;;;;;5073829;28;20070;-88
2021/06/13 06:34:05;;;;;;;2.85;2.00;;;17.70;54.60;;;;;;5047623;28;20025;-87
2021/06/13 06:36:31;;;;;;;3.17;1.95;;;17.70;54.60;;;;;;5062816;28;20089;-86
2021/06/13 06:38:57;;;;;;;4.38;2.30;;;17.70;54.60;;;;;;5071442;28;20518;-87
2021/06/13 06:41:22;;;;;;;3.33;2.20;;;17.70;54.60;;;;;;5042044;28;20036;-87
2021/06/13 06:43:48;;;;;;;3.55;2.22;;;17.80;54.70;;;;;;5057614;28;20100;-87
2021/06/13 06:46:14;;;;;;;2.60;1.73;;;17.80;54.70;;;;;;5063326;28;20092;-87
2021/06/13 06:48:40;;;;;;;3.50;2.20;;;17.70;54.60;;;;;;5036970;28;20031;-87
2021/06/13 06:51:06;;;;;;;3.83;2.08;;;17.80;54.70;;;;;;5061182;28;20031;-87
2021/06/13 06:53:31;;;;;;;3.13;1.77;;;17.80;54.70;;;;;;5060975;28;20664;-87
2021/06/13 06:55:57;;;;;;;3.67;1.90;;;17.80;54.70;;;;;;5047580;28;20036;-83
2021/06/13 06:58:23;;;;;;;2.50;1.67;;;17.80;54.70;;;;;;5020141;28;20092;-88
2021/06/13 07:00:49;;;;;;;3.95;1.92;;;17.90;54.70;;;;;;5075423;28;20040;-87
2021/06/13 07:03:14;;;;;;;3.38;1.80;;;17.90;54.70;;;;;;5052094;28;20388;-86
2021/06/13 07:05:40;;;;;;;2.85;1.73;;;17.90;54.70;;;;;;5074081;28;20028;-87
2021/06/13 07:08:06;;;;;;;4.82;1.80;;;17.90;54.70;;;;;;5044998;28;20032;-88
2021/06/13 07:10:32;;;;;;;3.80;1.88;;;17.90;54.60;;;;;;5072963;28;20040;-88
2021/06/13 07:12:58;;;;;;;3.65;2.00;;;17.90;54.60;;;;;;5057974;28;20425;-88
2021/06/13 07:15:24;;;;;;;3.38;1.75;;;17.90;54.60;;;;;;5081481;28;20115;-88
2021/06/13 07:17:50;;;;;;;3.58;2.08;;;18.00;54.60;;;;;;5057732;28;20071;-88
2021/06/13 07:20:16;;;;;;;3.17;2.00;;;18.00;54.60;;;;;;5044458;28;20012;-88
2021/06/13 07:22:42;;;;;;;2.65;1.85;;;18.00;54.60;;;;;;5074131;28;20120;-89
2021/06/13 07:25:09;;;;;;;3.10;2.03;;;18.00;54.50;;;;;;5063667;28;20031;-88
2021/06/13 07:27:36;;;;;;;3.50;1.98;;;18.10;54.60;;;;;;5046507;28;20040;-88
2021/06/13 07:30:05;;;;;;;2.60;1.77;;;18.10;54.50;;;;;;5061012;28;20436;-88
2021/06/13 07:32:31;;;;;;;4.13;1.88;;;18.10;54.50;;;;;;5071192;28;20380;-86
2021/06/13 07:34:56;;;;;;;3.50;1.70;;;18.20;54.40;;;;;;5060948;28;20076;-87
2021/06/13 07:37:22;;;;;;;3.10;1.85;;;18.20;54.30;;;;;;5077513;28;20036;-88
2021/06/13 07:39:48;;;;;;;2.70;1.75;;;18.30;54.30;;;;;;5077220;28;20154;-89
2021/06/13 07:42:14;;;;;;;3.67;2.00;;;18.40;54.30;;;;;;5058231;28;20036;-90
2021/06/13 07:44:40;;;;;;;2.58;1.70;;;18.40;54.20;;;;;;5064941;28;20260;-90
2021/06/13 07:47:05;;;;;;;2.63;1.83;;;18.50;54.80;;;;;;5040165;28;20044;-89
2021/06/13 07:49:31;;;;;;;2.38;1.80;;;18.50;54.10;;;;;;5094994;28;20035;-89
2021/06/13 07:51:59;;;;;;;3.25;2.00;;;18.60;54.00;;;;;;5040386;28;20131;-89
2021/06/13 07:54:26;;;;;;;3.13;1.90;;;18.70;54.00;;;;;;5060229;28;20448;-89
2021/06/13 07:56:52;;;;;;;3.47;1.73;;;18.70;53.90;;;;;;5094205;28;20016;-88
2021/06/13 07:59:18;;;;;;;3.17;1.80;;;18.80;53.90;;;;;;5040517;28;20078;-86
2021/06/13 08:01:44;;;;;;;3.33;1.80;;;18.90;53.80;;;;;;5073299;28;20059;-90
2021/06/13 08:04:10;;;;;;;3.75;2.00;;;18.90;53.80;;;;;;5045804;28;20123;-89
2021/06/13 08:06:36;;;;;;;2.80;1.80;;;19.00;53.70;;;;;;5055334;28;20060;-85
2021/06/13 08:09:02;;;;;;;3.35;1.83;;;19.10;53.70;;;;;;5034745;28;20082;-85
2021/06/13 08:11:29;;;;;;;3.35;1.80;;;19.10;53.60;;;;;;5066240;28;20020;-86
2021/06/13 08:13:55;;;;;;;3.17;1.80;;;19.30;53.60;;;;;;5056655;28;20029;-86
2021/06/13 08:16:21;;;;;;;3.28;1.83;;;19.30;53.50;;;;;;5059172;28;20556;-87
2021/06/13 08:18:47;;;;;;;3.10;1.90;;;19.40;53.50;;;;;;5083373;28;20481;-87
2021/06/13 08:21:13;;;;;;;4.82;2.00;;;19.40;53.40;;;;;;5070911;28;20032;-84
2021/06/13 08:23:39;;;;;;;3.78;2.10;;;19.50;53.40;;;;;;5037866;28;20028;-85
2021/06/13 08:26:05;;;;;;;2.65;1.60;;;19.60;53.50;;;;;;5072842;28;20070;-85
2021/06/13 08:28:30;;;;;;;2.78;1.65;;;19.70;53.40;;;;;;5051050;28;20077;-85
2021/06/13 08:30:56;;;;;;;3.67;1.90;;;19.70;53.30;;;;;;5075263;28;20097;-86
2021/06/13 08:33:23;;;;;;;2.75;1.85;;;19.80;53.30;;;;;;5055814;28;20033;-86
2021/06/13 08:35:50;;;;;;;2.75;1.63;;;19.90;53.30;;;;;;5068703;28;20028;-87
2021/06/13 08:38:16;;;;;;;3.65;2.00;;;20.00;53.20;;;;;;5062437;28;20060;-85
2021/06/13 08:40:42;;;;;;;3.03;1.67;;;20.10;53.10;;;;;;5065937;28;20501;-84
2021/06/13 08:43:08;;;;;;;3.67;2.08;;;20.10;53.00;;;;;;5041848;28;20022;-86
2021/06/13 08:45:36;;;;;;;3.13;1.75;;;20.20;53.00;;;;;;5069463;28;20115;-86
2021/06/13 08:48:03;;;;;;;2.83;1.70;;;20.30;53.00;;;;;;5074591;28;20043;-86
2021/06/13 08:50:34;;;;;;;3.20;1.70;;;20.40;52.90;;;;;;5048586;28;20028;-88
2021/06/13 08:53:00;;;;;;;2.85;1.70;;;20.40;52.90;;;;;;5058884;28;20036;-88
2021/06/13 08:55:27;;;;;;;2.78;1.90;;;20.50;52.80;;;;;;5058267;28;20021;-89
2021/06/13 08:57:55;;;;;;;2.25;1.52;;;20.60;52.80;;;;;;5075815;28;20086;-90
2021/06/13 09:00:26;;;;;;;3.65;1.60;;;20.60;52.70;;;;;;5059200;28;20047;-88
2021/06/13 09:02:53;;;;;;;3.13;1.83;;;20.70;52.60;;;;;;5063170;28;20055;-88
2021/06/13 09:05:22;;;;;;;1.98;1.50;;;20.80;52.60;;;;;;5058285;28;20032;-86
2021/06/13 09:07:57;;;;;;;2.42;1.63;;;20.80;52.60;;;;;;5075107;28;20035;-88
2021/06/13 09:10:27;;;;;;;2.35;1.65;;;20.90;52.60;;;;;;5057903;28;20061;-89
2021/06/13 09:13:12;;;;;;;3.15;1.85;;;20.90;52.50;;;;;;5052382;28;20028;-87
2021/06/13 09:15:47;;;;;;;3.40;1.80;;;21.00;52.50;;;;;;5074284;28;20051;-85
2021/06/13 09:18:35;;;;;;;2.45;1.60;;;21.10;52.40;;;;;;5063779;28;20052;-90
2021/06/13 09:21:02;;;;;;;2.92;1.63;;;21.20;52.30;;;;;;5058675;28;20038;-88
2021/06/13 09:23:29;;;;;;;4.18;1.98;;;21.30;52.10;;;;;;5075658;28;20035;-86
2021/06/13 09:26:04;;;;;;;3.20;1.58;;;21.30;52.00;;;;;;5044059;28;20051;-88
2021/06/13 09:28:33;;;;;;;2.15;1.55;;;21.40;52.10;;;;;;5074725;28;20036;-87
2021/06/13 09:30:59;;;;;;;2.88;1.75;;;21.50;51.90;;;;;;5064932;28;20661;-89
2021/06/13 09:33:32;;;;;;;3.90;2.00;;;21.60;51.80;;;;;;5092271;28;20491;-89
2021/06/13 09:36:00;;;;;;;3.72;1.77;;;21.70;51.80;;;;;;5074281;28;20487;-88
2021/06/13 09:38:45;;;;;;;3.75;1.85;;;21.70;51.70;;;;;;5074108;28;20165;-85
2021/06/13 09:41:14;;;;;;;3.08;1.77;;;21.80;51.70;;;;;;5068983;28;20027;-79
2021/06/13 09:43:47;;;;;;;2.63;1.50;;;22.00;51.60;;;;;;5055405;28;20020;-79
2021/06/13 09:46:16;;;;;;;1.75;1.40;;;22.00;51.50;;;;;;5065805;28;20476;-80
2021/06/13 09:48:47;;;;;;;2.63;1.63;;;22.10;51.40;;;;;;5055402;28;20024;-80
2021/06/13 09:51:25;;;;;;;2.38;1.60;;;22.20;51.40;;;;;;5090680;28;20088;-81
2021/06/13 09:53:52;;;;;;;3.15;1.70;;;22.30;51.40;;;;;;5055702;28;20016;-81
2021/06/13 09:56:33;;;;;;;3.28;1.80;;;22.40;51.20;;;;;;5046026;28;20171;-80
2021/06/13 09:59:08;;;;;;;2.63;1.60;;;22.50;51.20;;;;;;5059848;28;20039;-80
2021/06/13 10:01:42;;;;;;;3.33;1.80;;;22.50;51.10;;;;;;5072064;28;20764;-79
2021/06/13 10:04:24;;;;;;;;;;;22.60;51.00;;;;;;5055375;28;20032;-80
2021/06/13 10:06:52;;;;;;;1.58;1.35;;;22.70;50.90;;;;;;5071801;28;19916;-80
2021/06/13 10:09:21;;;;;;;3.17;1.75;;;22.80;50.80;;;;;;5054363;28;20532;-82
2021/06/13 10:11:50;;;;;;;3.92;2.00;;;22.90;50.90;;;;;;5067081;28;20036;-83
2021/06/13 10:14:17;;;;;;;4.13;2.03;;;23.00;50.90;;;;;;5076383;28;20088;-82
2021/06/13 10:16:52;;;;;;;2.60;1.63;;;23.10;50.80;;;;;;5094820;28;20031;-82
2021/06/13 10:19:19;;;;;;;3.47;1.80;;;23.20;50.90;;;;;;5059425;28;20038;-82
2021/06/13 10:21:50;;;;;;;2.67;1.52;;;23.20;50.70;;;;;;5076784;28;20052;-83
2021/06/13 10:24:24;;;;;;;2.55;1.75;;;23.30;50.60;;;;;;5060089;28;20059;-82
2021/06/13 10:26:58;;;;;;;2.75;1.80;;;23.40;50.60;;;;;;5055988;28;20029;-82
2021/06/13 10:29:30;;;;;;;3.13;1.73;;;23.50;50.50;;;;;;5062733;28;20036;-82
2021/06/13 10:31:58;;;;;;;2.80;1.80;;;23.60;50.50;;;;;;5094234;28;20545;-83
2021/06/13 10:34:26;;;;;;;3.88;1.95;;;23.70;50.50;;;;;;5056984;28;20028;-83
2021/06/13 10:36:53;;;;;;;2.75;1.60;;;23.80;50.40;;;;;;5059337;28;20035;-83
2021/06/13 10:39:22;;;;;;;2.72;1.90;;;23.90;50.40;;;;;;5076682;28;20028;-83
2021/06/13 10:41:49;;;;;;;3.38;1.75;;;24.00;50.30;;;;;;5059519;28;20035;-83
2021/06/13 10:44:18;;;;;;;4.90;1.90;;;24.10;50.20;;;;;;5077203;28;20099;-83
2021/06/13 10:46:55;;;;;;;3.22;1.70;;;24.20;50.20;;;;;;5076375;28;20082;-83
2021/06/13 10:49:33;;;;;;;3.60;1.85;;;24.20;50.10;;;;;;5094959;28;20032;-83
2021/06/13 10:52:12;;;;;;;2.83;1.67;;;24.30;50.00;;;;;;5076191;28;20024;-84
2021/06/13 10:54:40;;;;;;;2.53;1.70;;;24.40;50.00;;;;;;5076840;28;20036;-84
2021/06/13 10:57:08;;;;;;;2.72;1.90;;;24.50;49.90;;;;;;5066357;28;20024;-84
2021/06/13 10:59:36;;;;;;;3.70;1.95;;;24.60;49.80;;;;;;5076331;28;20035;-83
2021/06/13 11:02:13;;;;;;;2.90;1.83;;;24.70;49.70;;;;;;5055381;28;20031;-83
2021/06/13 11:05:03;;;;;;;2.70;1.60;;;24.80;49.70;;;;;;5048097;28;20163;-83
2021/06/13 11:07:29;;;;;;;2.42;1.70;;;24.80;49.70;;;;;;5072351;28;20033;-82
2021/06/13 11:10:13;;;;;;;2.97;1.83;;;24.90;49.60;;;;;;5059376;28;20368;-83
2021/06/13 11:12:52;;;;;;;2.83;1.67;;;25.00;49.70;;;;;;5074600;28;20020;-83
2021/06/13 11:15:35;;;;;;;2.88;1.60;;;25.10;49.70;;;;;;5059360;28;20031;-83
2021/06/13 11:18:15;;;;;;;2.40;1.58;;;25.10;49.70;;;;;;5059021;28;20385;-81
2021/06/13 11:21:03;;;;;;;3.00;1.60;;;25.10;49.80;;;;;;5044699;28;20025;-83
2021/06/13 11:23:29;;;;;;;2.95;1.67;;;25.20;49.70;;;;;;5059109;28;20027;-83
2021/06/13 11:25:57;;;;;;;2.90;1.65;;;25.30;49.90;;;;;;5057726;28;20358;-84
2021/06/13 11:28:24;;;;;;;3.88;1.67;;;25.30;50.00;;;;;;5058611;28;20032;-84
2021/06/13 11:31:08;;;;;;;2.75;2.03;;;25.30;49.90;;;;;;5059144;28;20055;-83
2021/06/13 11:33:42;;;;;;;2.83;1.70;;;25.40;50.00;;;;;;5082197;28;20020;-82
2021/06/13 11:36:17;;;;;;;;;;;25.40;50.00;;;;;;5092723;28;20028;-83
2021/06/13 11:38:45;;;;;;;2.78;1.65;;;25.40;50.00;;;;;;5048034;28;19908;-83
2021/06/13 11:41:32;;;;;;;2.67;1.52;;;25.40;50.00;;;;;;5093748;28;20016;-83
2021/06/13 11:44:01;;;;;;;3.60;1.75;;;25.40;50.20;;;;;;5062227;28;20434;-83
2021/06/13 11:46:33;;;;;;;2.90;1.85;;;25.50;50.20;;;;;;5053674;28;20051;-83
2021/06/13 11:48:59;;;;;;;2.58;1.75;;;25.50;50.40;;;;;;5075327;28;20038;-84
2021/06/13 11:51:26;;;;;;;3.90;1.95;;;25.50;50.40;;;;;;5056398;28;20028;-83
2021/06/13 11:54:02;;;;;;;3.45;2.03;;;25.50;50.50;;;;;;5042486;28;20486;-83
2021/06/13 11:56:39;;;;;;;2.28;1.52;;;25.50;50.60;;;;;;5074293;28;20036;-84
2021/06/13 11:59:14;;;;;;;3.47;1.80;;;25.50;50.60;;;;;;5074395;28;20051;-83
2021/06/13 12:01:42;;;;;;;3.17;2.08;;;25.50;50.70;;;;;;5074370;28;20051;-84
2021/06/13 12:04:12;;;;;;;2.63;1.73;;;25.50;50.60;;;;;;5093158;28;20015;-83
2021/06/13 12:06:38;;;;;;;2.88;1.88;;;25.60;50.80;;;;;;5092560;28;20115;-84
2021/06/13 12:09:16;;;;;;;3.28;1.75;;;25.60;50.80;;;;;;5057275;28;20119;-83
2021/06/13 12:11:53;;;;;;;3.45;1.85;;;25.60;50.90;;;;;;5058604;28;20059;-83
2021/06/13 12:14:26;;;;;;;3.00;1.70;;;25.60;50.90;;;;;;5048198;28;20474;-84
2021/06/13 12:17:04;;;;;;;2.78;1.85;;;25.60;51.00;;;;;;5074477;28;20087;-83
2021/06/13 12:19:34;;;;;;;2.83;1.80;;;25.60;51.00;;;;;;5057966;28;20028;-84
2021/06/13 12:22:18;;;;;;;3.75;1.90;;;25.60;51.00;;;;;;5074186;28;20024;-84
2021/06/13 12:27:26;;;;;;;2.63;1.60;;;25.60;51.00;;;;;;5092366;28;20028;-83
2021/06/13 12:29:54;;;;;;;3.13;2.03;;;25.60;51.00;;;;;;5074564;28;20059;-84
2021/06/13 12:32:20;;;;;;;2.85;1.80;;;25.60;51.00;;;;;;5073889;28;20139;-84
2021/06/13 12:34:56;;;;;;;2.72;1.70;;;25.60;51.00;;;;;;5041870;28;20024;-84
2021/06/13 12:37:24;;;;;;;2.88;1.80;;;25.60;50.90;;;;;;5053046;28;20047;-83
2021/06/13 12:39:59;;;;;;;2.75;1.95;;;25.60;50.90;;;;;;5056397;28;20008;-84
2021/06/13 12:42:26;;;;;;;3.20;2.00;;;25.60;50.80;;;;;;5057933;28;20036;-84
2021/06/13 12:45:10;;;;;;;3.50;1.75;;;25.60;50.60;;;;;;5041549;28;20404;-83
2021/06/13 12:47:40;;;;;;;2.65;1.77;;;25.60;50.60;;;;;;5091432;28;20048;-83
2021/06/13 12:50:08;;;;;;;3.42;1.70;;;25.60;50.50;;;;;;5054447;28;20039;-83
2021/06/13 12:52:36;;;;;;;2.95;1.90;;;25.60;50.40;;;;;;5065734;28;20027;-83
2021/06/13 12:55:08;;;;;;;2.17;1.60;;;25.60;50.50;;;;;;5057608;28;20024;-84
2021/06/13 12:57:39;;;;;;;2.67;1.67;;;25.60;50.40;;;;;;5075083;28;20028;-84
2021/06/13 13:00:08;;;;;;;2.75;1.55;;;25.60;50.40;;;;;;5057963;28;20047;-85
2021/06/13 13:02:33;;;;;;;2.75;1.73;;;25.60;50.30;;;;;;5074081;28;20603;-83